Рассадник сумчатой русофобии - AntonTsAU (antontsau) wrote,
Рассадник сумчатой русофобии - AntonTsAU
antontsau

Category:

Ну че, лето включили?

METAR YSBK 030100Z AUTO 33008KT 9999 // NCD 28/08 Q1015 RMK RF00.0/000.0

28 градусов в Банкстауне прямщас (11 утра). Небо синее, солнце желтое, трава зеленая, правительство ебанутое - все по плану! Можно переходить на летнюю форму одежды то есть шорты.

Tags: Сидней, лытдыбр, природное
Subscribe

  • Post a new comment

    Error

    Anonymous comments are disabled in this journal

    default userpic

    Your reply will be screened

    Your IP address will be recorded 

  • 8 comments